createdAt,value
2019-05-30T00:02:31.765Z,3.40
2019-05-30T00:07:37.283Z,3.13
2019-05-30T00:12:42.758Z,3.40
2019-05-30T00:17:48.217Z,2.87
2019-05-30T00:22:54.633Z,2.90
2019-05-30T00:28:01.105Z,3.27
2019-05-30T00:33:07.120Z,3.33
2019-05-30T00:38:12.745Z,3.10
2019-05-30T00:43:18.264Z,3.13
2019-05-30T00:48:23.698Z,3.00
2019-05-30T00:53:29.130Z,3.03
2019-05-30T00:58:34.558Z,3.00
2019-05-30T01:03:39.941Z,2.80
2019-05-30T01:08:45.394Z,3.20
2019-05-30T01:13:50.996Z,3.07
2019-05-30T01:18:57.025Z,3.00
2019-05-30T01:24:03.534Z,3.20
2019-05-30T01:29:09.049Z,3.47
2019-05-30T01:34:14.464Z,2.93
2019-05-30T01:39:19.928Z,3.13
2019-05-30T01:44:25.320Z,2.60
2019-05-30T01:49:30.738Z,3.07
2019-05-30T01:54:36.229Z,2.40
2019-05-30T01:59:41.727Z,2.30
2019-05-30T02:04:47.178Z,2.43
2019-05-30T02:09:52.734Z,2.60
2019-05-30T02:14:59.330Z,2.10
2019-05-30T02:20:05.810Z,2.40
2019-05-30T02:25:11.309Z,2.13
2019-05-30T02:30:17.700Z,2.23
2019-05-30T02:35:23.642Z,2.30
2019-05-30T02:40:29.140Z,2.40
2019-05-30T02:45:34.587Z,2.37
2019-05-30T02:50:40.158Z,2.40
2019-05-30T02:55:45.784Z,2.40
2019-05-30T03:00:51.364Z,2.20
2019-05-30T03:05:57.028Z,2.07
2019-05-30T03:11:04.444Z,2.17
2019-05-30T03:16:11.818Z,2.30
2019-05-30T03:21:16.970Z,2.37
2019-05-30T03:26:22.396Z,2.33
2019-05-30T03:31:29.869Z,2.07
2019-05-30T03:36:35.132Z,1.93
2019-05-30T03:41:40.685Z,2.33
2019-05-30T03:46:50.734Z,2.37
2019-05-30T03:51:56.525Z,2.13
2019-05-30T03:57:11.239Z,2.37
2019-05-30T04:02:30.364Z,2.10
2019-05-30T04:07:36.307Z,2.60
2019-05-30T04:13:03.617Z,2.47
2019-05-30T04:18:10.137Z,2.40
2019-05-30T04:23:16.939Z,2.30
2019-05-30T04:28:23.319Z,2.63
2019-05-30T04:33:33.031Z,2.90
2019-05-30T04:38:35.900Z,2.90
2019-05-30T04:43:41.483Z,2.90
2019-05-30T04:48:47.116Z,2.83
2019-05-30T04:53:52.538Z,2.60
2019-05-30T04:58:58.087Z,2.63
2019-05-30T05:04:04.070Z,2.80
2019-05-30T05:09:09.585Z,2.50
2019-05-30T05:14:16.268Z,2.67
2019-05-30T05:19:25.967Z,2.60
2019-05-30T05:24:30.710Z,3.07
2019-05-30T05:29:36.183Z,2.90
2019-05-30T05:34:41.581Z,3.17
2019-05-30T05:39:47.125Z,2.90
2019-05-30T05:44:52.874Z,2.60
2019-05-30T05:49:58.433Z,3.10
2019-05-30T05:55:03.907Z,2.63
2019-05-30T06:00:09.417Z,2.97
2019-05-30T06:05:15.958Z,2.80
2019-05-30T06:10:21.873Z,2.60
2019-05-30T06:15:27.347Z,2.67
2019-05-30T06:20:32.767Z,2.70
2019-05-30T06:25:38.448Z,2.60
2019-05-30T06:30:44.047Z,2.73
2019-05-30T06:35:49.499Z,2.50
2019-05-30T06:40:55.065Z,2.57
2019-05-30T06:46:00.598Z,2.47
2019-05-30T06:51:06.075Z,2.53
2019-05-30T06:56:11.701Z,2.73
2019-05-30T07:01:17.166Z,2.40
2019-05-30T07:06:23.209Z,2.70
2019-05-30T07:11:29.409Z,2.33
2019-05-30T07:16:34.888Z,2.13
2019-05-30T07:21:40.536Z,2.23
2019-05-30T07:26:45.997Z,2.30
2019-05-30T07:31:51.424Z,2.30
2019-05-30T07:36:56.982Z,2.20
2019-05-30T07:42:06.159Z,2.40
2019-05-30T07:47:09.582Z,2.30
2019-05-30T07:52:15.053Z,2.30
2019-05-30T07:57:20.460Z,1.93
2019-05-30T08:02:27.411Z,2.00
2019-05-30T08:07:33.036Z,2.40
2019-05-30T08:12:38.664Z,2.17
2019-05-30T08:17:44.629Z,1.90
2019-05-30T08:22:50.249Z,2.27
2019-05-30T08:27:55.741Z,2.07
2019-05-30T08:33:01.186Z,1.90
2019-05-30T08:38:06.713Z,1.80
2019-05-30T08:43:12.387Z,1.67
2019-05-30T08:48:17.849Z,1.70
2019-05-30T08:53:23.280Z,1.87
2019-05-30T08:58:28.714Z,1.93
2019-05-30T09:03:34.237Z,1.70
2019-05-30T09:08:40.038Z,1.53
2019-05-30T09:13:46.606Z,1.80
2019-05-30T09:18:52.368Z,1.90
2019-05-30T09:24:01.256Z,1.50
2019-05-30T09:29:04.946Z,1.70
2019-05-30T09:34:12.123Z,1.83
2019-05-30T09:39:17.827Z,1.73
2019-05-30T09:44:33.145Z,1.50
2019-05-30T09:49:38.644Z,1.40
2019-05-30T09:54:44.334Z,1.20
2019-05-30T09:59:50.500Z,1.10
2019-05-30T10:04:56.224Z,1.20
2019-05-30T10:10:01.661Z,1.20
2019-05-30T10:15:08.277Z,1.40
2019-05-30T10:20:13.744Z,1.33
2019-05-30T10:25:19.210Z,1.40
2019-05-30T10:30:24.985Z,1.30
2019-05-30T10:35:31.243Z,1.27
2019-05-30T10:40:36.756Z,1.10
2019-05-30T10:45:42.266Z,1.30
2019-05-30T10:50:48.570Z,1.40
2019-05-30T10:55:54.826Z,1.20
2019-05-30T11:01:00.409Z,1.43
2019-05-30T11:06:39.172Z,1.23
2019-05-30T11:11:44.832Z,1.07
2019-05-30T11:16:51.700Z,1.10
2019-05-30T11:21:58.176Z,1.30
2019-05-30T11:27:03.667Z,1.80
2019-05-30T11:32:09.246Z,1.77
2019-05-30T11:37:18.809Z,3.17
2019-05-30T11:42:22.044Z,1.87
2019-05-30T11:47:27.532Z,1.17
2019-05-30T11:52:33.054Z,1.00
2019-05-30T11:57:38.516Z,1.20
2019-05-30T12:02:43.947Z,1.30
2019-05-30T12:07:50.614Z,1.20
2019-05-30T12:12:57.330Z,1.57
2019-05-30T12:18:02.882Z,2.30
2019-05-30T12:23:08.406Z,1.33
2019-05-30T12:28:13.836Z,1.50
2019-05-30T12:33:19.269Z,1.40
2019-05-30T12:38:24.724Z,2.30
2019-05-30T12:43:30.181Z,1.60
2019-05-30T12:48:35.764Z,2.00
2019-05-30T12:53:41.191Z,1.40
2019-05-30T12:58:46.733Z,2.10
2019-05-30T13:03:52.303Z,1.27
2019-05-30T13:08:57.749Z,1.60
2019-05-30T13:14:03.243Z,1.40
2019-05-30T13:19:08.697Z,1.20
2019-05-30T13:24:14.389Z,1.70
2019-05-30T13:29:19.869Z,1.60
2019-05-30T13:34:25.289Z,1.50
2019-05-30T13:39:30.952Z,1.73
2019-05-30T13:44:36.542Z,2.30
2019-05-30T13:49:42.044Z,1.70
2019-05-30T13:54:47.664Z,1.73
2019-05-30T13:59:53.121Z,2.00
2019-05-30T14:04:59.915Z,2.00
2019-05-30T14:10:06.420Z,1.70
2019-05-30T14:15:14.281Z,1.90
2019-05-30T14:20:19.970Z,2.03
2019-05-30T14:25:25.395Z,1.80
2019-05-30T14:30:30.894Z,1.60
2019-05-30T14:35:36.450Z,1.77
2019-05-30T14:40:42.051Z,1.70
2019-05-30T14:45:47.485Z,1.80
2019-05-30T14:50:53.009Z,1.97
2019-05-30T14:55:58.549Z,1.67
2019-05-30T15:01:05.045Z,1.80
2019-05-30T15:06:12.882Z,1.90
2019-05-30T15:11:17.846Z,1.80
2019-05-30T15:16:23.307Z,1.83
2019-05-30T15:21:28.721Z,1.70
2019-05-30T15:26:34.170Z,1.80
2019-05-30T15:31:39.673Z,2.43
2019-05-30T15:36:45.168Z,2.40
2019-05-30T15:41:50.608Z,2.40
2019-05-30T15:46:56.115Z,1.70
2019-05-30T15:52:01.527Z,2.03
2019-05-30T15:57:06.931Z,1.80
2019-05-30T16:02:12.427Z,1.70
2019-05-30T16:07:18.819Z,2.13
2019-05-30T16:12:24.248Z,2.20
2019-05-30T16:17:29.687Z,1.67
2019-05-30T16:22:35.161Z,1.90
2019-05-30T16:27:40.588Z,1.97
2019-05-30T16:32:46.068Z,1.93
2019-05-30T16:37:51.561Z,2.13
2019-05-30T16:42:57.540Z,1.90
2019-05-30T16:48:02.978Z,1.80
2019-05-30T16:53:08.642Z,1.90
2019-05-30T16:58:15.367Z,2.30
2019-05-30T17:03:21.926Z,4.10
2019-05-30T17:08:27.542Z,2.50
2019-05-30T17:13:33.012Z,2.20
2019-05-30T17:18:38.518Z,2.10
2019-05-30T17:23:44.010Z,2.00
2019-05-30T17:28:49.428Z,2.23
2019-05-30T17:33:54.945Z,2.63
2019-05-30T17:39:00.546Z,2.40
2019-05-30T17:44:06.065Z,2.60
2019-05-30T17:49:11.489Z,2.03
2019-05-30T17:54:17.292Z,2.20
2019-05-30T17:59:24.254Z,2.40
2019-05-30T18:04:30.774Z,2.20
2019-05-30T18:09:36.416Z,2.23
2019-05-30T18:14:42.286Z,1.90
2019-05-30T18:19:47.861Z,1.80
2019-05-30T18:24:53.511Z,1.67
2019-05-30T18:29:59.082Z,1.80
2019-05-30T18:35:04.817Z,1.63
2019-05-30T18:40:11.340Z,1.70
2019-05-30T18:45:24.955Z,1.90
2019-05-30T18:50:31.659Z,2.30
2019-05-30T18:55:37.233Z,2.10
2019-05-30T19:00:42.715Z,2.30
2019-05-30T19:05:48.641Z,2.17
2019-05-30T19:10:54.312Z,2.10
2019-05-30T19:15:59.761Z,1.90
2019-05-30T19:21:05.314Z,1.80
2019-05-30T19:26:11.274Z,1.90
2019-05-30T19:31:17.003Z,1.90
2019-05-30T19:36:22.488Z,2.10
2019-05-30T19:41:41.606Z,1.87
2019-05-30T19:46:36.239Z,3.47
2019-05-30T19:51:42.342Z,2.30
2019-05-30T19:56:47.785Z,2.30
2019-05-30T20:01:53.488Z,2.00
2019-05-30T20:06:59.201Z,2.10
2019-05-30T20:12:08.634Z,2.00
2019-05-30T20:17:12.124Z,2.50
2019-05-30T20:22:17.567Z,2.30
2019-05-30T20:27:23.239Z,2.37
2019-05-30T20:32:28.926Z,2.30
2019-05-30T20:37:34.619Z,2.33
2019-05-30T20:42:41.051Z,2.70
2019-05-30T20:47:47.506Z,3.10
2019-05-30T20:52:53.016Z,2.70
2019-05-30T20:57:58.435Z,2.93
2019-05-30T21:03:04.157Z,2.93
2019-05-30T21:08:09.650Z,3.17
2019-05-30T21:13:15.148Z,2.70
2019-05-30T21:18:20.658Z,3.10
2019-05-30T21:23:26.153Z,2.90
2019-05-30T21:28:31.669Z,3.00
2019-05-30T21:33:37.689Z,2.90
2019-05-30T21:38:43.954Z,3.37
2019-05-30T21:43:49.409Z,3.10
2019-05-30T21:48:54.933Z,3.13
2019-05-30T21:54:00.326Z,3.10
2019-05-30T21:59:05.782Z,3.30
2019-05-30T22:04:11.231Z,3.50
2019-05-30T22:09:16.735Z,3.80
2019-05-30T22:14:22.374Z,3.47
2019-05-30T22:19:27.829Z,3.87
2019-05-30T22:24:33.338Z,3.97
2019-05-30T22:29:40.458Z,3.63
2019-05-30T22:34:46.654Z,3.67
2019-05-30T22:39:53.041Z,4.03
2019-05-30T22:44:58.830Z,4.50
2019-05-30T22:50:04.318Z,3.90
2019-05-30T22:55:09.806Z,3.97
2019-05-30T23:00:15.956Z,4.60
2019-05-30T23:05:21.368Z,4.20
2019-05-30T23:10:26.882Z,4.30
2019-05-30T23:15:32.370Z,3.97
2019-05-30T23:20:37.890Z,3.83
2019-05-30T23:25:43.513Z,4.07
2019-05-30T23:30:49.849Z,4.00
2019-05-30T23:35:56.521Z,4.13
2019-05-30T23:41:02.164Z,4.17
2019-05-30T23:46:07.581Z,4.10
2019-05-30T23:51:13.136Z,3.80
2019-05-30T23:56:18.897Z,4.17
